sensor_id;sensor_type;location;lat;lon;timestamp;P1;durP1;ratioP1;P2;durP2;ratioP2
50309;SDS011;36207;51.850;21.698;2022-12-07T00:01:16;21.50;;;13.70;;
50309;SDS011;36207;51.850;21.698;2022-12-07T00:03:45;22.30;;;14.10;;
50309;SDS011;36207;51.850;21.698;2022-12-07T00:06:13;21.00;;;14.00;;
50309;SDS011;36207;51.850;21.698;2022-12-07T00:08:41;22.30;;;13.60;;
50309;SDS011;36207;51.850;21.698;2022-12-07T00:11:08;22.20;;;13.60;;
50309;SDS011;36207;51.850;21.698;2022-12-07T00:13:38;21.80;;;13.80;;
50309;SDS011;36207;51.850;21.698;2022-12-07T00:16:06;22.90;;;13.90;;
50309;SDS011;36207;51.850;21.698;2022-12-07T00:18:43;20.50;;;13.60;;
50309;SDS011;36207;51.850;21.698;2022-12-07T00:21:11;23.60;;;13.90;;
50309;SDS011;36207;51.850;21.698;2022-12-07T00:23:39;22.50;;;13.80;;
50309;SDS011;36207;51.850;21.698;2022-12-07T00:26:10;23.40;;;14.00;;
50309;SDS011;36207;51.850;21.698;2022-12-07T00:28:48;22.50;;;14.20;;
50309;SDS011;36207;51.850;21.698;2022-12-07T00:31:16;23.60;;;14.40;;
50309;SDS011;36207;51.850;21.698;2022-12-07T00:33:44;24.90;;;14.70;;
50309;SDS011;36207;51.850;21.698;2022-12-07T00:36:13;23.00;;;14.50;;
50309;SDS011;36207;51.850;21.698;2022-12-07T00:38:41;24.80;;;14.70;;
50309;SDS011;36207;51.850;21.698;2022-12-07T00:41:09;23.60;;;14.50;;
50309;SDS011;36207;51.850;21.698;2022-12-07T00:43:39;22.00;;;14.70;;
50309;SDS011;36207;51.850;21.698;2022-12-07T00:46:07;23.00;;;14.70;;
50309;SDS011;36207;51.850;21.698;2022-12-07T00:48:34;24.50;;;14.70;;
50309;SDS011;36207;51.850;21.698;2022-12-07T00:51:00;24.30;;;15.50;;
50309;SDS011;36207;51.850;21.698;2022-12-07T00:53:28;23.80;;;14.50;;
50309;SDS011;36207;51.850;21.698;2022-12-07T00:55:54;28.20;;;14.80;;
50309;SDS011;36207;51.850;21.698;2022-12-07T00:58:24;25.60;;;15.10;;
50309;SDS011;36207;51.850;21.698;2022-12-07T01:00:50;23.40;;;14.40;;
50309;SDS011;36207;51.850;21.698;2022-12-07T01:03:16;24.40;;;14.90;;
50309;SDS011;36207;51.850;21.698;2022-12-07T01:05:53;25.00;;;15.40;;
50309;SDS011;36207;51.850;21.698;2022-12-07T01:08:21;26.10;;;14.60;;
50309;SDS011;36207;51.850;21.698;2022-12-07T01:10:48;24.90;;;15.10;;
50309;SDS011;36207;51.850;21.698;2022-12-07T01:13:15;25.30;;;15.00;;
50309;SDS011;36207;51.850;21.698;2022-12-07T01:15:42;25.00;;;15.30;;
50309;SDS011;36207;51.850;21.698;2022-12-07T01:18:10;24.70;;;14.70;;
50309;SDS011;36207;51.850;21.698;2022-12-07T01:20:37;25.50;;;14.20;;
50309;SDS011;36207;51.850;21.698;2022-12-07T01:23:03;22.20;;;14.40;;
50309;SDS011;36207;51.850;21.698;2022-12-07T01:25:30;23.20;;;14.40;;
50309;SDS011;36207;51.850;21.698;2022-12-07T01:27:57;24.10;;;14.70;;
50309;SDS011;36207;51.850;21.698;2022-12-07T01:30:23;24.80;;;14.60;;
50309;SDS011;36207;51.850;21.698;2022-12-07T01:32:49;22.80;;;14.20;;
50309;SDS011;36207;51.850;21.698;2022-12-07T01:35:16;23.50;;;14.20;;
50309;SDS011;36207;51.850;21.698;2022-12-07T01:37:42;26.60;;;13.70;;
50309;SDS011;36207;51.850;21.698;2022-12-07T01:40:09;27.00;;;15.40;;
50309;SDS011;36207;51.850;21.698;2022-12-07T01:42:36;22.60;;;13.70;;
50309;SDS011;36207;51.850;21.698;2022-12-07T01:47:46;23.00;;;13.70;;
50309;SDS011;36207;51.850;21.698;2022-12-07T01:50:17;20.80;;;12.90;;
50309;SDS011;36207;51.850;21.698;2022-12-07T01:52:44;21.20;;;12.10;;
50309;SDS011;36207;51.850;21.698;2022-12-07T01:55:13;18.40;;;11.30;;
50309;SDS011;36207;51.850;21.698;2022-12-07T01:57:41;16.30;;;9.90;;
50309;SDS011;36207;51.850;21.698;2022-12-07T02:00:11;17.20;;;10.20;;
50309;SDS011;36207;51.850;21.698;2022-12-07T02:02:48;15.70;;;10.00;;
50309;SDS011;36207;51.850;21.698;2022-12-07T02:05:20;18.30;;;10.20;;
50309;SDS011;36207;51.850;21.698;2022-12-07T02:07:48;17.00;;;9.80;;
50309;SDS011;36207;51.850;21.698;2022-12-07T02:12:44;15.70;;;9.30;;
50309;SDS011;36207;51.850;21.698;2022-12-07T02:15:16;15.80;;;9.70;;
50309;SDS011;36207;51.850;21.698;2022-12-07T02:20:33;16.20;;;8.90;;
50309;SDS011;36207;51.850;21.698;2022-12-07T02:23:29;17.70;;;9.40;;
50309;SDS011;36207;51.850;21.698;2022-12-07T02:29:21;15.80;;;9.30;;
50309;SDS011;36207;51.850;21.698;2022-12-07T02:31:59;15.40;;;9.00;;
50309;SDS011;36207;51.850;21.698;2022-12-07T02:34:55;14.90;;;8.40;;
50309;SDS011;36207;51.850;21.698;2022-12-07T02:40:38;15.80;;;8.00;;
50309;SDS011;36207;51.850;21.698;2022-12-07T02:43:00;12.20;;;7.80;;
50309;SDS011;36207;51.850;21.698;2022-12-07T02:45:32;13.40;;;7.50;;
50309;SDS011;36207;51.850;21.698;2022-12-07T02:48:01;13.00;;;7.30;;
50309;SDS011;36207;51.850;21.698;2022-12-07T02:50:30;11.80;;;7.30;;
50309;SDS011;36207;51.850;21.698;2022-12-07T02:52:56;11.90;;;7.00;;
50309;SDS011;36207;51.850;21.698;2022-12-07T02:55:25;12.10;;;7.30;;
50309;SDS011;36207;51.850;21.698;2022-12-07T03:00:55;11.90;;;7.30;;
50309;SDS011;36207;51.850;21.698;2022-12-07T03:03:34;11.50;;;6.60;;
50309;SDS011;36207;51.850;21.698;2022-12-07T03:11:08;12.10;;;6.90;;
50309;SDS011;36207;51.850;21.698;2022-12-07T03:13:40;12.30;;;7.10;;
50309;SDS011;36207;51.850;21.698;2022-12-07T03:21:33;11.00;;;7.10;;
50309;SDS011;36207;51.850;21.698;2022-12-07T03:24:05;11.90;;;7.50;;
50309;SDS011;36207;51.850;21.698;2022-12-07T03:26:40;13.70;;;7.20;;
50309;SDS011;36207;51.850;21.698;2022-12-07T03:29:12;12.00;;;7.60;;
50309;SDS011;36207;51.850;21.698;2022-12-07T03:31:46;13.10;;;7.50;;
50309;SDS011;36207;51.850;21.698;2022-12-07T03:34:20;12.50;;;7.70;;
50309;SDS011;36207;51.850;21.698;2022-12-07T03:36:55;12.20;;;7.80;;
50309;SDS011;36207;51.850;21.698;2022-12-07T03:39:45;13.70;;;8.00;;
50309;SDS011;36207;51.850;21.698;2022-12-07T03:42:20;13.30;;;8.20;;
50309;SDS011;36207;51.850;21.698;2022-12-07T03:44:46;12.60;;;7.90;;
50309;SDS011;36207;51.850;21.698;2022-12-07T03:50:07;12.50;;;7.80;;
50309;SDS011;36207;51.850;21.698;2022-12-07T03:52:41;13.60;;;8.70;;
50309;SDS011;36207;51.850;21.698;2022-12-07T03:55:17;13.70;;;8.40;;
50309;SDS011;36207;51.850;21.698;2022-12-07T03:58:01;14.60;;;8.60;;
50309;SDS011;36207;51.850;21.698;2022-12-07T04:00:32;15.40;;;9.00;;
50309;SDS011;36207;51.850;21.698;2022-12-07T04:02:58;14.10;;;8.90;;
50309;SDS011;36207;51.850;21.698;2022-12-07T04:05:24;13.00;;;8.80;;
50309;SDS011;36207;51.850;21.698;2022-12-07T04:07:51;14.40;;;8.70;;
50309;SDS011;36207;51.850;21.698;2022-12-07T04:10:17;13.80;;;8.90;;
50309;SDS011;36207;51.850;21.698;2022-12-07T04:12:44;14.50;;;9.30;;
50309;SDS011;36207;51.850;21.698;2022-12-07T04:15:10;13.50;;;8.90;;
50309;SDS011;36207;51.850;21.698;2022-12-07T04:17:37;14.10;;;8.70;;
50309;SDS011;36207;51.850;21.698;2022-12-07T04:20:04;13.10;;;9.00;;
50309;SDS011;36207;51.850;21.698;2022-12-07T04:22:31;15.50;;;9.60;;
50309;SDS011;36207;51.850;21.698;2022-12-07T04:24:57;14.90;;;9.40;;
50309;SDS011;36207;51.850;21.698;2022-12-07T04:27:23;15.50;;;8.90;;
50309;SDS011;36207;51.850;21.698;2022-12-07T04:29:50;15.50;;;9.50;;
50309;SDS011;36207;51.850;21.698;2022-12-07T04:32:16;14.70;;;9.60;;
50309;SDS011;36207;51.850;21.698;2022-12-07T04:34:42;13.90;;;9.50;;
50309;SDS011;36207;51.850;21.698;2022-12-07T04:37:09;16.50;;;9.60;;
50309;SDS011;36207;51.850;21.698;2022-12-07T04:39:35;14.90;;;9.40;;
50309;SDS011;36207;51.850;21.698;2022-12-07T04:42:01;13.50;;;8.80;;
50309;SDS011;36207;51.850;21.698;2022-12-07T04:44:28;14.20;;;9.00;;
50309;SDS011;36207;51.850;21.698;2022-12-07T04:46:55;16.80;;;9.50;;
50309;SDS011;36207;51.850;21.698;2022-12-07T04:49:23;14.90;;;9.80;;
50309;SDS011;36207;51.850;21.698;2022-12-07T04:51:50;17.20;;;9.70;;
50309;SDS011;36207;51.850;21.698;2022-12-07T04:54:17;15.40;;;9.60;;
50309;SDS011;36207;51.850;21.698;2022-12-07T04:56:43;14.30;;;9.70;;
50309;SDS011;36207;51.850;21.698;2022-12-07T04:59:10;15.20;;;9.40;;
50309;SDS011;36207;51.850;21.698;2022-12-07T05:01:38;14.80;;;9.30;;
50309;SDS011;36207;51.850;21.698;2022-12-07T05:04:04;14.10;;;9.30;;
50309;SDS011;36207;51.850;21.698;2022-12-07T05:06:31;13.50;;;9.10;;
50309;SDS011;36207;51.850;21.698;2022-12-07T05:08:57;16.40;;;9.80;;
50309;SDS011;36207;51.850;21.698;2022-12-07T05:11:23;14.00;;;9.40;;
50309;SDS011;36207;51.850;21.698;2022-12-07T05:14:06;15.90;;;9.70;;
50309;SDS011;36207;51.850;21.698;2022-12-07T05:16:37;14.70;;;10.20;;
50309;SDS011;36207;51.850;21.698;2022-12-07T05:19:05;15.60;;;9.70;;
50309;SDS011;36207;51.850;21.698;2022-12-07T05:21:32;16.30;;;10.40;;
50309;SDS011;36207;51.850;21.698;2022-12-07T05:23:59;16.30;;;10.00;;
50309;SDS011;36207;51.850;21.698;2022-12-07T05:26:25;17.30;;;10.70;;
50309;SDS011;36207;51.850;21.698;2022-12-07T05:28:52;15.70;;;9.70;;
50309;SDS011;36207;51.850;21.698;2022-12-07T05:31:21;16.30;;;10.80;;
50309;SDS011;36207;51.850;21.698;2022-12-07T05:33:47;17.20;;;10.40;;
50309;SDS011;36207;51.850;21.698;2022-12-07T05:36:14;16.50;;;10.60;;
50309;SDS011;36207;51.850;21.698;2022-12-07T05:38:40;16.10;;;10.20;;
50309;SDS011;36207;51.850;21.698;2022-12-07T05:41:07;15.50;;;9.70;;
50309;SDS011;36207;51.850;21.698;2022-12-07T05:43:55;15.60;;;10.20;;
50309;SDS011;36207;51.850;21.698;2022-12-07T05:46:22;18.80;;;11.60;;
50309;SDS011;36207;51.850;21.698;2022-12-07T05:48:48;15.60;;;9.90;;
50309;SDS011;36207;51.850;21.698;2022-12-07T05:51:14;15.30;;;10.10;;
50309;SDS011;36207;51.850;21.698;2022-12-07T05:53:40;16.40;;;10.90;;
50309;SDS011;36207;51.850;21.698;2022-12-07T05:56:06;16.50;;;10.60;;
50309;SDS011;36207;51.850;21.698;2022-12-07T05:58:33;17.70;;;10.10;;
50309;SDS011;36207;51.850;21.698;2022-12-07T06:01:17;17.20;;;10.70;;
50309;SDS011;36207;51.850;21.698;2022-12-07T06:03:43;16.50;;;10.20;;
50309;SDS011;36207;51.850;21.698;2022-12-07T06:06:11;17.80;;;10.50;;
50309;SDS011;36207;51.850;21.698;2022-12-07T06:08:37;17.00;;;10.80;;
50309;SDS011;36207;51.850;21.698;2022-12-07T06:11:03;16.40;;;10.40;;
50309;SDS011;36207;51.850;21.698;2022-12-07T06:13:48;15.60;;;9.80;;
50309;SDS011;36207;51.850;21.698;2022-12-07T06:16:15;15.60;;;9.90;;
50309;SDS011;36207;51.850;21.698;2022-12-07T06:18:41;17.00;;;10.20;;
50309;SDS011;36207;51.850;21.698;2022-12-07T06:21:08;15.90;;;10.30;;
50309;SDS011;36207;51.850;21.698;2022-12-07T06:23:34;14.60;;;8.80;;
50309;SDS011;36207;51.850;21.698;2022-12-07T06:26:00;15.10;;;10.00;;
50309;SDS011;36207;51.850;21.698;2022-12-07T06:28:26;14.40;;;9.10;;
50309;SDS011;36207;51.850;21.698;2022-12-07T06:31:02;15.20;;;9.80;;
50309;SDS011;36207;51.850;21.698;2022-12-07T06:33:28;16.60;;;10.20;;
50309;SDS011;36207;51.850;21.698;2022-12-07T06:35:55;16.20;;;10.00;;
50309;SDS011;36207;51.850;21.698;2022-12-07T06:38:21;14.60;;;9.50;;
50309;SDS011;36207;51.850;21.698;2022-12-07T06:40:48;15.10;;;9.50;;
50309;SDS011;36207;51.850;21.698;2022-12-07T06:43:14;16.00;;;9.60;;
50309;SDS011;36207;51.850;21.698;2022-12-07T06:45:40;14.30;;;9.60;;
50309;SDS011;36207;51.850;21.698;2022-12-07T06:48:07;14.50;;;9.70;;
50309;SDS011;36207;51.850;21.698;2022-12-07T06:50:33;14.90;;;9.10;;
50309;SDS011;36207;51.850;21.698;2022-12-07T06:52:59;14.10;;;8.80;;
50309;SDS011;36207;51.850;21.698;2022-12-07T06:55:26;14.00;;;8.80;;
50309;SDS011;36207;51.850;21.698;2022-12-07T06:57:52;14.00;;;9.10;;
50309;SDS011;36207;51.850;21.698;2022-12-07T07:00:18;15.00;;;9.60;;
50309;SDS011;36207;51.850;21.698;2022-12-07T07:02:45;15.80;;;8.90;;
50309;SDS011;36207;51.850;21.698;2022-12-07T07:05:11;15.40;;;9.00;;
50309;SDS011;36207;51.850;21.698;2022-12-07T07:07:37;12.40;;;8.40;;
50309;SDS011;36207;51.850;21.698;2022-12-07T07:10:03;13.00;;;8.00;;
50309;SDS011;36207;51.850;21.698;2022-12-07T07:12:30;15.50;;;9.80;;
50309;SDS011;36207;51.850;21.698;2022-12-07T07:14:56;13.70;;;7.90;;
50309;SDS011;36207;51.850;21.698;2022-12-07T07:17:23;12.80;;;7.60;;
50309;SDS011;36207;51.850;21.698;2022-12-07T07:19:49;13.50;;;7.60;;
50309;SDS011;36207;51.850;21.698;2022-12-07T07:22:15;12.10;;;7.50;;
50309;SDS011;36207;51.850;21.698;2022-12-07T07:24:41;13.70;;;7.50;;
50309;SDS011;36207;51.850;21.698;2022-12-07T07:27:07;11.70;;;7.10;;
50309;SDS011;36207;51.850;21.698;2022-12-07T07:29:33;12.30;;;7.60;;
50309;SDS011;36207;51.850;21.698;2022-12-07T07:32:00;12.90;;;7.50;;
50309;SDS011;36207;51.850;21.698;2022-12-07T07:34:26;12.30;;;7.90;;
50309;SDS011;36207;51.850;21.698;2022-12-07T07:36:53;12.70;;;7.80;;
50309;SDS011;36207;51.850;21.698;2022-12-07T07:39:19;13.60;;;7.90;;
50309;SDS011;36207;51.850;21.698;2022-12-07T07:41:45;10.60;;;7.10;;
50309;SDS011;36207;51.850;21.698;2022-12-07T07:44:12;11.50;;;7.40;;
50309;SDS011;36207;51.850;21.698;2022-12-07T07:46:38;10.50;;;7.00;;
50309;SDS011;36207;51.850;21.698;2022-12-07T07:49:05;11.10;;;6.50;;
50309;SDS011;36207;51.850;21.698;2022-12-07T07:51:31;11.70;;;7.20;;
50309;SDS011;36207;51.850;21.698;2022-12-07T07:53:57;12.10;;;7.30;;
50309;SDS011;36207;51.850;21.698;2022-12-07T07:56:23;12.80;;;7.50;;
50309;SDS011;36207;51.850;21.698;2022-12-07T07:58:52;12.60;;;7.10;;
50309;SDS011;36207;51.850;21.698;2022-12-07T08:01:19;11.30;;;7.20;;
50309;SDS011;36207;51.850;21.698;2022-12-07T08:03:48;12.20;;;7.40;;
50309;SDS011;36207;51.850;21.698;2022-12-07T08:06:15;11.40;;;7.20;;
50309;SDS011;36207;51.850;21.698;2022-12-07T08:08:41;11.60;;;6.90;;
50309;SDS011;36207;51.850;21.698;2022-12-07T08:11:08;10.40;;;6.60;;
50309;SDS011;36207;51.850;21.698;2022-12-07T08:13:35;10.90;;;6.50;;
50309;SDS011;36207;51.850;21.698;2022-12-07T08:16:06;12.00;;;6.80;;
50309;SDS011;36207;51.850;21.698;2022-12-07T08:18:37;11.00;;;7.20;;
50309;SDS011;36207;51.850;21.698;2022-12-07T08:21:05;10.60;;;6.40;;
50309;SDS011;36207;51.850;21.698;2022-12-07T08:23:33;11.30;;;7.20;;
50309;SDS011;36207;51.850;21.698;2022-12-07T08:26:03;11.00;;;6.80;;
50309;SDS011;36207;51.850;21.698;2022-12-07T08:28:31;10.50;;;7.00;;
50309;SDS011;36207;51.850;21.698;2022-12-07T08:33:27;11.20;;;6.90;;
50309;SDS011;36207;51.850;21.698;2022-12-07T08:35:53;10.50;;;6.30;;
50309;SDS011;36207;51.850;21.698;2022-12-07T08:38:20;9.80;;;6.40;;
50309;SDS011;36207;51.850;21.698;2022-12-07T08:40:56;10.40;;;6.90;;
50309;SDS011;36207;51.850;21.698;2022-12-07T08:43:23;11.70;;;6.60;;
50309;SDS011;36207;51.850;21.698;2022-12-07T08:45:53;9.50;;;5.80;;
50309;SDS011;36207;51.850;21.698;2022-12-07T08:48:29;10.50;;;6.60;;
50309;SDS011;36207;51.850;21.698;2022-12-07T08:50:56;10.00;;;6.20;;
50309;SDS011;36207;51.850;21.698;2022-12-07T08:53:23;9.80;;;6.00;;
50309;SDS011;36207;51.850;21.698;2022-12-07T08:55:50;10.70;;;6.50;;
50309;SDS011;36207;51.850;21.698;2022-12-07T08:58:16;11.20;;;7.10;;
50309;SDS011;36207;51.850;21.698;2022-12-07T09:00:42;10.00;;;6.40;;
50309;SDS011;36207;51.850;21.698;2022-12-07T09:03:09;10.90;;;6.50;;
50309;SDS011;36207;51.850;21.698;2022-12-07T09:05:35;10.80;;;6.50;;
50309;SDS011;36207;51.850;21.698;2022-12-07T09:08:01;10.90;;;6.40;;
50309;SDS011;36207;51.850;21.698;2022-12-07T09:10:28;9.40;;;6.60;;
50309;SDS011;36207;51.850;21.698;2022-12-07T09:12:55;11.00;;;7.30;;
50309;SDS011;36207;51.850;21.698;2022-12-07T09:15:29;10.50;;;6.60;;
50309;SDS011;36207;51.850;21.698;2022-12-07T09:17:56;10.50;;;6.60;;
50309;SDS011;36207;51.850;21.698;2022-12-07T09:20:23;12.10;;;6.80;;
50309;SDS011;36207;51.850;21.698;2022-12-07T09:22:49;11.90;;;7.50;;
50309;SDS011;36207;51.850;21.698;2022-12-07T09:25:15;11.70;;;7.50;;
50309;SDS011;36207;51.850;21.698;2022-12-07T09:27:41;10.70;;;7.30;;
50309;SDS011;36207;51.850;21.698;2022-12-07T09:30:08;10.60;;;6.70;;
50309;SDS011;36207;51.850;21.698;2022-12-07T09:32:34;10.80;;;7.10;;
50309;SDS011;36207;51.850;21.698;2022-12-07T09:35:01;10.40;;;6.90;;
50309;SDS011;36207;51.850;21.698;2022-12-07T09:37:27;12.60;;;7.50;;
50309;SDS011;36207;51.850;21.698;2022-12-07T09:39:53;13.60;;;7.80;;
50309;SDS011;36207;51.850;21.698;2022-12-07T09:42:33;11.20;;;7.50;;
50309;SDS011;36207;51.850;21.698;2022-12-07T09:45:02;13.50;;;8.60;;
50309;SDS011;36207;51.850;21.698;2022-12-07T09:47:31;14.40;;;8.20;;
50309;SDS011;36207;51.850;21.698;2022-12-07T09:52:49;15.80;;;9.60;;
50309;SDS011;36207;51.850;21.698;2022-12-07T09:55:23;15.50;;;9.50;;
50309;SDS011;36207;51.850;21.698;2022-12-07T09:57:53;13.10;;;8.40;;
50309;SDS011;36207;51.850;21.698;2022-12-07T10:00:21;12.80;;;8.30;;
50309;SDS011;36207;51.850;21.698;2022-12-07T10:02:54;13.10;;;8.90;;
50309;SDS011;36207;51.850;21.698;2022-12-07T10:05:26;14.40;;;9.00;;
50309;SDS011;36207;51.850;21.698;2022-12-07T10:08:11;13.70;;;8.50;;
50309;SDS011;36207;51.850;21.698;2022-12-07T10:10:38;15.20;;;9.70;;
50309;SDS011;36207;51.850;21.698;2022-12-07T10:13:06;14.50;;;9.60;;
50309;SDS011;36207;51.850;21.698;2022-12-07T10:18:30;15.10;;;9.70;;
50309;SDS011;36207;51.850;21.698;2022-12-07T10:21:14;16.90;;;9.80;;
50309;SDS011;36207;51.850;21.698;2022-12-07T10:23:59;17.10;;;10.50;;
50309;SDS011;36207;51.850;21.698;2022-12-07T10:26:32;16.80;;;10.20;;
50309;SDS011;36207;51.850;21.698;2022-12-07T10:29:02;15.70;;;10.20;;
50309;SDS011;36207;51.850;21.698;2022-12-07T10:31:58;15.90;;;10.50;;
50309;SDS011;36207;51.850;21.698;2022-12-07T10:34:31;16.40;;;10.10;;
50309;SDS011;36207;51.850;21.698;2022-12-07T10:39:41;17.00;;;10.70;;
50309;SDS011;36207;51.850;21.698;2022-12-07T10:44:46;18.80;;;10.90;;
50309;SDS011;36207;51.850;21.698;2022-12-07T10:53:06;14.90;;;9.80;;
50309;SDS011;36207;51.850;21.698;2022-12-07T10:59:17;18.10;;;10.70;;
50309;SDS011;36207;51.850;21.698;2022-12-07T11:02:10;16.90;;;10.40;;
50309;SDS011;36207;51.850;21.698;2022-12-07T11:10:05;16.30;;;10.20;;
50309;SDS011;36207;51.850;21.698;2022-12-07T11:15:24;18.10;;;10.50;;
50309;SDS011;36207;51.850;21.698;2022-12-07T11:20:39;16.80;;;10.30;;
50309;SDS011;36207;51.850;21.698;2022-12-07T11:23:51;17.20;;;10.80;;
50309;SDS011;36207;51.850;21.698;2022-12-07T11:26:43;20.60;;;10.50;;
50309;SDS011;36207;51.850;21.698;2022-12-07T11:32:40;17.40;;;11.40;;
50309;SDS011;36207;51.850;21.698;2022-12-07T11:38:16;17.70;;;10.30;;
50309;SDS011;36207;51.850;21.698;2022-12-07T11:40:49;14.30;;;10.10;;
50309;SDS011;36207;51.850;21.698;2022-12-07T11:43:30;17.80;;;10.70;;
50309;SDS011;36207;51.850;21.698;2022-12-07T11:46:12;15.50;;;10.70;;
50309;SDS011;36207;51.850;21.698;2022-12-07T11:48:43;14.50;;;9.70;;
50309;SDS011;36207;51.850;21.698;2022-12-07T11:51:20;16.30;;;10.60;;
50309;SDS011;36207;51.850;21.698;2022-12-07T11:53:49;17.20;;;10.50;;
50309;SDS011;36207;51.850;21.698;2022-12-07T11:56:21;18.70;;;10.60;;
50309;SDS011;36207;51.850;21.698;2022-12-07T11:58:58;17.90;;;10.90;;
50309;SDS011;36207;51.850;21.698;2022-12-07T12:06:40;16.50;;;10.20;;
50309;SDS011;36207;51.850;21.698;2022-12-07T12:22:58;13.70;;;8.50;;
50309;SDS011;36207;51.850;21.698;2022-12-07T12:25:29;12.70;;;8.50;;
50309;SDS011;36207;51.850;21.698;2022-12-07T12:28:01;17.10;;;9.20;;
50309;SDS011;36207;51.850;21.698;2022-12-07T12:46:53;12.20;;;7.80;;
50309;SDS011;36207;51.850;21.698;2022-12-07T12:51:52;12.10;;;7.30;;
50309;SDS011;36207;51.850;21.698;2022-12-07T12:54:30;11.20;;;7.30;;
50309;SDS011;36207;51.850;21.698;2022-12-07T12:59:26;11.70;;;7.10;;
50309;SDS011;36207;51.850;21.698;2022-12-07T13:01:56;12.40;;;7.30;;
50309;SDS011;36207;51.850;21.698;2022-12-07T13:04:51;12.80;;;7.70;;
50309;SDS011;36207;51.850;21.698;2022-12-07T13:18:35;13.70;;;8.10;;
50309;SDS011;36207;51.850;21.698;2022-12-07T13:23:56;11.70;;;6.80;;
50309;SDS011;36207;51.850;21.698;2022-12-07T13:29:06;10.90;;;7.20;;
50309;SDS011;36207;51.850;21.698;2022-12-07T13:31:46;11.50;;;7.70;;
50309;SDS011;36207;51.850;21.698;2022-12-07T13:34:38;12.50;;;8.00;;
50309;SDS011;36207;51.850;21.698;2022-12-07T13:39:59;11.00;;;7.30;;
50309;SDS011;36207;51.850;21.698;2022-12-07T13:42:43;10.60;;;6.80;;
50309;SDS011;36207;51.850;21.698;2022-12-07T13:45:43;13.30;;;8.10;;
50309;SDS011;36207;51.850;21.698;2022-12-07T13:48:36;12.90;;;7.80;;
50309;SDS011;36207;51.850;21.698;2022-12-07T13:51:18;11.50;;;7.40;;
50309;SDS011;36207;51.850;21.698;2022-12-07T13:53:48;13.60;;;8.10;;
50309;SDS011;36207;51.850;21.698;2022-12-07T13:56:16;13.30;;;8.10;;
50309;SDS011;36207;51.850;21.698;2022-12-07T13:58:42;12.30;;;8.20;;
50309;SDS011;36207;51.850;21.698;2022-12-07T14:01:09;16.30;;;9.80;;
50309;SDS011;36207;51.850;21.698;2022-12-07T14:03:36;12.40;;;8.40;;
50309;SDS011;36207;51.850;21.698;2022-12-07T14:08:39;14.10;;;8.80;;
50309;SDS011;36207;51.850;21.698;2022-12-07T14:11:05;12.30;;;8.10;;
50309;SDS011;36207;51.850;21.698;2022-12-07T14:22:37;13.90;;;8.30;;
50309;SDS011;36207;51.850;21.698;2022-12-07T14:27:38;14.00;;;9.00;;
50309;SDS011;36207;51.850;21.698;2022-12-07T14:30:05;14.90;;;8.60;;
50309;SDS011;36207;51.850;21.698;2022-12-07T14:32:41;16.70;;;9.90;;
50309;SDS011;36207;51.850;21.698;2022-12-07T14:35:09;14.90;;;9.70;;
50309;SDS011;36207;51.850;21.698;2022-12-07T14:37:38;15.80;;;10.10;;
50309;SDS011;36207;51.850;21.698;2022-12-07T14:40:06;15.20;;;9.90;;
50309;SDS011;36207;51.850;21.698;2022-12-07T14:42:33;15.70;;;10.10;;
50309;SDS011;36207;51.850;21.698;2022-12-07T14:45:01;14.80;;;9.90;;
50309;SDS011;36207;51.850;21.698;2022-12-07T14:47:27;14.80;;;10.10;;
50309;SDS011;36207;51.850;21.698;2022-12-07T14:49:54;14.40;;;9.00;;
50309;SDS011;36207;51.850;21.698;2022-12-07T14:52:26;13.60;;;8.90;;
50309;SDS011;36207;51.850;21.698;2022-12-07T14:54:56;12.70;;;9.00;;
50309;SDS011;36207;51.850;21.698;2022-12-07T14:57:23;17.30;;;10.10;;
50309;SDS011;36207;51.850;21.698;2022-12-07T14:59:50;14.40;;;9.10;;
50309;SDS011;36207;51.850;21.698;2022-12-07T15:02:16;13.10;;;8.80;;
50309;SDS011;36207;51.850;21.698;2022-12-07T15:04:43;13.60;;;9.10;;
50309;SDS011;36207;51.850;21.698;2022-12-07T15:07:12;13.20;;;9.20;;
50309;SDS011;36207;51.850;21.698;2022-12-07T15:09:44;16.80;;;10.40;;
50309;SDS011;36207;51.850;21.698;2022-12-07T15:12:10;17.60;;;11.10;;
50309;SDS011;36207;51.850;21.698;2022-12-07T15:14:36;14.30;;;9.20;;
50309;SDS011;36207;51.850;21.698;2022-12-07T15:17:02;18.50;;;12.00;;
50309;SDS011;36207;51.850;21.698;2022-12-07T15:19:29;14.60;;;9.20;;
50309;SDS011;36207;51.850;21.698;2022-12-07T15:21:55;14.10;;;9.70;;
50309;SDS011;36207;51.850;21.698;2022-12-07T15:24:23;16.40;;;9.80;;
50309;SDS011;36207;51.850;21.698;2022-12-07T15:26:50;13.10;;;8.50;;
50309;SDS011;36207;51.850;21.698;2022-12-07T15:29:16;13.90;;;9.20;;
50309;SDS011;36207;51.850;21.698;2022-12-07T15:31:42;15.70;;;9.20;;
50309;SDS011;36207;51.850;21.698;2022-12-07T15:34:09;15.80;;;9.40;;
50309;SDS011;36207;51.850;21.698;2022-12-07T15:36:35;19.10;;;10.50;;
50309;SDS011;36207;51.850;21.698;2022-12-07T15:39:02;15.60;;;10.20;;
50309;SDS011;36207;51.850;21.698;2022-12-07T15:41:29;17.00;;;10.50;;
50309;SDS011;36207;51.850;21.698;2022-12-07T15:43:55;16.50;;;10.30;;
50309;SDS011;36207;51.850;21.698;2022-12-07T15:46:40;17.90;;;10.90;;
50309;SDS011;36207;51.850;21.698;2022-12-07T15:49:18;16.50;;;10.50;;
50309;SDS011;36207;51.850;21.698;2022-12-07T15:51:45;16.80;;;10.60;;
50309;SDS011;36207;51.850;21.698;2022-12-07T15:54:13;21.30;;;12.20;;
50309;SDS011;36207;51.850;21.698;2022-12-07T15:57:01;16.70;;;11.10;;
50309;SDS011;36207;51.850;21.698;2022-12-07T15:59:27;17.20;;;11.00;;
50309;SDS011;36207;51.850;21.698;2022-12-07T16:01:55;19.50;;;11.80;;
50309;SDS011;36207;51.850;21.698;2022-12-07T16:04:21;17.90;;;11.50;;
50309;SDS011;36207;51.850;21.698;2022-12-07T16:06:48;17.40;;;11.60;;
50309;SDS011;36207;51.850;21.698;2022-12-07T16:09:16;19.90;;;12.10;;
50309;SDS011;36207;51.850;21.698;2022-12-07T16:11:43;19.70;;;12.60;;
50309;SDS011;36207;51.850;21.698;2022-12-07T16:14:09;20.80;;;12.90;;
50309;SDS011;36207;51.850;21.698;2022-12-07T16:16:35;19.30;;;12.50;;
50309;SDS011;36207;51.850;21.698;2022-12-07T16:19:02;19.40;;;12.30;;
50309;SDS011;36207;51.850;21.698;2022-12-07T16:21:28;20.00;;;12.60;;
50309;SDS011;36207;51.850;21.698;2022-12-07T16:23:56;20.30;;;13.20;;
50309;SDS011;36207;51.850;21.698;2022-12-07T16:26:24;21.40;;;12.70;;
50309;SDS011;36207;51.850;21.698;2022-12-07T16:28:50;19.90;;;13.10;;
50309;SDS011;36207;51.850;21.698;2022-12-07T16:31:20;20.00;;;12.10;;
50309;SDS011;36207;51.850;21.698;2022-12-07T16:33:48;21.90;;;13.00;;
50309;SDS011;36207;51.850;21.698;2022-12-07T16:36:16;19.70;;;12.60;;
50309;SDS011;36207;51.850;21.698;2022-12-07T16:38:43;20.50;;;13.00;;
50309;SDS011;36207;51.850;21.698;2022-12-07T16:41:11;18.00;;;11.50;;
50309;SDS011;36207;51.850;21.698;2022-12-07T16:43:38;21.70;;;12.60;;
50309;SDS011;36207;51.850;21.698;2022-12-07T16:46:04;23.20;;;13.50;;
50309;SDS011;36207;51.850;21.698;2022-12-07T16:48:31;20.80;;;12.90;;
50309;SDS011;36207;51.850;21.698;2022-12-07T16:51:02;21.30;;;13.20;;
50309;SDS011;36207;51.850;21.698;2022-12-07T16:53:30;23.40;;;13.20;;
50309;SDS011;36207;51.850;21.698;2022-12-07T16:55:56;21.30;;;12.70;;